sensor_id;sensor_type;location;lat;lon;timestamp;P1;durP1;ratioP1;P2;durP2;ratioP2
32641;SDS011;19323;56.072;9.698;2022-08-21T00:01:32;0.57;;;0.25;;
32641;SDS011;19323;56.072;9.698;2022-08-21T00:04:03;0.77;;;0.28;;
32641;SDS011;19323;56.072;9.698;2022-08-21T00:06:30;0.70;;;0.20;;
32641;SDS011;19323;56.072;9.698;2022-08-21T00:08:59;0.70;;;0.45;;
32641;SDS011;19323;56.072;9.698;2022-08-21T00:11:31;3.10;;;0.47;;
32641;SDS011;19323;56.072;9.698;2022-08-21T00:13:58;1.17;;;0.47;;
32641;SDS011;19323;56.072;9.698;2022-08-21T00:16:25;2.42;;;0.40;;
32641;SDS011;19323;56.072;9.698;2022-08-21T00:18:51;2.47;;;0.40;;
32641;SDS011;19323;56.072;9.698;2022-08-21T00:21:18;1.48;;;0.30;;
32641;SDS011;19323;56.072;9.698;2022-08-21T00:23:45;0.50;;;0.22;;
32641;SDS011;19323;56.072;9.698;2022-08-21T00:26:11;1.02;;;0.47;;
32641;SDS011;19323;56.072;9.698;2022-08-21T00:28:38;0.75;;;0.20;;
32641;SDS011;19323;56.072;9.698;2022-08-21T00:31:04;0.98;;;0.57;;
32641;SDS011;19323;56.072;9.698;2022-08-21T00:33:31;0.70;;;0.40;;
32641;SDS011;19323;56.072;9.698;2022-08-21T00:35:58;1.35;;;0.63;;
32641;SDS011;19323;56.072;9.698;2022-08-21T00:38:24;0.70;;;0.30;;
32641;SDS011;19323;56.072;9.698;2022-08-21T00:40:55;0.40;;;0.20;;
32641;SDS011;19323;56.072;9.698;2022-08-21T00:43:45;1.63;;;0.20;;
32641;SDS011;19323;56.072;9.698;2022-08-21T00:46:11;0.60;;;0.20;;
32641;SDS011;19323;56.072;9.698;2022-08-21T00:48:38;1.00;;;0.30;;
32641;SDS011;19323;56.072;9.698;2022-08-21T00:51:09;1.83;;;0.35;;
32641;SDS011;19323;56.072;9.698;2022-08-21T00:53:49;0.40;;;0.20;;
32641;SDS011;19323;56.072;9.698;2022-08-21T00:56:19;1.05;;;0.40;;
32641;SDS011;19323;56.072;9.698;2022-08-21T00:58:48;0.73;;;0.40;;
32641;SDS011;19323;56.072;9.698;2022-08-21T01:01:20;0.90;;;0.43;;
32641;SDS011;19323;56.072;9.698;2022-08-21T01:03:47;1.25;;;0.30;;
32641;SDS011;19323;56.072;9.698;2022-08-21T01:06:15;1.15;;;0.30;;
32641;SDS011;19323;56.072;9.698;2022-08-21T01:08:42;1.23;;;0.30;;
32641;SDS011;19323;56.072;9.698;2022-08-21T01:11:12;2.67;;;0.28;;
32641;SDS011;19323;56.072;9.698;2022-08-21T01:13:40;1.63;;;0.50;;
32641;SDS011;19323;56.072;9.698;2022-08-21T01:16:12;0.50;;;0.20;;
32641;SDS011;19323;56.072;9.698;2022-08-21T01:18:41;0.65;;;0.25;;
32641;SDS011;19323;56.072;9.698;2022-08-21T01:23:46;0.20;;;0.17;;
32641;SDS011;19323;56.072;9.698;2022-08-21T01:26:16;0.55;;;0.30;;
32641;SDS011;19323;56.072;9.698;2022-08-21T01:28:59;0.55;;;0.28;;
32641;SDS011;19323;56.072;9.698;2022-08-21T01:31:27;0.68;;;0.40;;
32641;SDS011;19323;56.072;9.698;2022-08-21T01:33:56;1.10;;;0.30;;
32641;SDS011;19323;56.072;9.698;2022-08-21T01:36:23;1.08;;;0.40;;
32641;SDS011;19323;56.072;9.698;2022-08-21T01:38:50;0.70;;;0.55;;
32641;SDS011;19323;56.072;9.698;2022-08-21T01:41:17;1.27;;;0.30;;
32641;SDS011;19323;56.072;9.698;2022-08-21T01:43:44;0.30;;;0.28;;
32641;SDS011;19323;56.072;9.698;2022-08-21T01:46:11;0.73;;;0.57;;
32641;SDS011;19323;56.072;9.698;2022-08-21T01:48:39;0.68;;;0.25;;
32641;SDS011;19323;56.072;9.698;2022-08-21T01:51:06;0.85;;;0.40;;
32641;SDS011;19323;56.072;9.698;2022-08-21T01:53:33;1.77;;;0.57;;
32641;SDS011;19323;56.072;9.698;2022-08-21T01:56:03;0.68;;;0.25;;
32641;SDS011;19323;56.072;9.698;2022-08-21T01:58:38;0.88;;;0.32;;
32641;SDS011;19323;56.072;9.698;2022-08-21T02:01:05;0.82;;;0.32;;
32641;SDS011;19323;56.072;9.698;2022-08-21T02:03:33;0.40;;;0.35;;
32641;SDS011;19323;56.072;9.698;2022-08-21T02:06:02;0.30;;;0.28;;
32641;SDS011;19323;56.072;9.698;2022-08-21T02:08:30;0.73;;;0.20;;
32641;SDS011;19323;56.072;9.698;2022-08-21T02:10:56;1.48;;;0.40;;
32641;SDS011;19323;56.072;9.698;2022-08-21T02:13:23;0.77;;;0.40;;
32641;SDS011;19323;56.072;9.698;2022-08-21T02:15:49;2.05;;;0.82;;
32641;SDS011;19323;56.072;9.698;2022-08-21T02:18:16;3.60;;;0.85;;
32641;SDS011;19323;56.072;9.698;2022-08-21T02:20:45;0.52;;;0.20;;
32641;SDS011;19323;56.072;9.698;2022-08-21T02:23:13;0.40;;;0.20;;
32641;SDS011;19323;56.072;9.698;2022-08-21T02:25:45;0.90;;;0.30;;
32641;SDS011;19323;56.072;9.698;2022-08-21T02:28:12;0.70;;;0.30;;
32641;SDS011;19323;56.072;9.698;2022-08-21T02:30:41;1.30;;;0.40;;
32641;SDS011;19323;56.072;9.698;2022-08-21T02:33:11;0.68;;;0.30;;
32641;SDS011;19323;56.072;9.698;2022-08-21T02:35:39;0.60;;;0.50;;
32641;SDS011;19323;56.072;9.698;2022-08-21T02:38:10;0.50;;;0.20;;
32641;SDS011;19323;56.072;9.698;2022-08-21T02:40:39;0.65;;;0.38;;
32641;SDS011;19323;56.072;9.698;2022-08-21T02:45:41;0.80;;;0.40;;
32641;SDS011;19323;56.072;9.698;2022-08-21T02:48:11;0.80;;;0.43;;
32641;SDS011;19323;56.072;9.698;2022-08-21T02:50:40;1.27;;;0.40;;
32641;SDS011;19323;56.072;9.698;2022-08-21T02:53:10;2.42;;;0.77;;
32641;SDS011;19323;56.072;9.698;2022-08-21T02:55:45;3.25;;;0.40;;
32641;SDS011;19323;56.072;9.698;2022-08-21T02:58:14;0.30;;;0.20;;
32641;SDS011;19323;56.072;9.698;2022-08-21T03:00:44;0.68;;;0.43;;
32641;SDS011;19323;56.072;9.698;2022-08-21T03:03:11;3.42;;;0.68;;
32641;SDS011;19323;56.072;9.698;2022-08-21T03:05:39;0.85;;;0.30;;
32641;SDS011;19323;56.072;9.698;2022-08-21T03:08:07;0.73;;;0.32;;
32641;SDS011;19323;56.072;9.698;2022-08-21T03:10:37;0.50;;;0.30;;
32641;SDS011;19323;56.072;9.698;2022-08-21T03:13:06;0.60;;;0.20;;
32641;SDS011;19323;56.072;9.698;2022-08-21T03:15:32;1.02;;;0.35;;
32641;SDS011;19323;56.072;9.698;2022-08-21T03:18:00;0.63;;;0.32;;
32641;SDS011;19323;56.072;9.698;2022-08-21T03:20:27;0.57;;;0.43;;
32641;SDS011;19323;56.072;9.698;2022-08-21T03:22:54;0.32;;;0.30;;
32641;SDS011;19323;56.072;9.698;2022-08-21T03:25:23;0.68;;;0.43;;
32641;SDS011;19323;56.072;9.698;2022-08-21T03:28:08;1.25;;;0.60;;
32641;SDS011;19323;56.072;9.698;2022-08-21T03:30:39;0.57;;;0.30;;
32641;SDS011;19323;56.072;9.698;2022-08-21T03:33:07;1.02;;;0.30;;
32641;SDS011;19323;56.072;9.698;2022-08-21T03:35:37;1.52;;;0.30;;
32641;SDS011;19323;56.072;9.698;2022-08-21T03:38:03;0.50;;;0.40;;
32641;SDS011;19323;56.072;9.698;2022-08-21T03:40:30;1.13;;;0.28;;
32641;SDS011;19323;56.072;9.698;2022-08-21T03:42:57;0.43;;;0.28;;
32641;SDS011;19323;56.072;9.698;2022-08-21T03:45:25;0.77;;;0.20;;
32641;SDS011;19323;56.072;9.698;2022-08-21T03:47:59;0.80;;;0.30;;
32641;SDS011;19323;56.072;9.698;2022-08-21T03:50:29;2.20;;;0.88;;
32641;SDS011;19323;56.072;9.698;2022-08-21T03:53:00;1.70;;;0.32;;
32641;SDS011;19323;56.072;9.698;2022-08-21T03:55:27;0.55;;;0.20;;
32641;SDS011;19323;56.072;9.698;2022-08-21T03:57:54;0.70;;;0.30;;
32641;SDS011;19323;56.072;9.698;2022-08-21T04:00:20;0.77;;;0.30;;
32641;SDS011;19323;56.072;9.698;2022-08-21T04:02:47;0.70;;;0.60;;
32641;SDS011;19323;56.072;9.698;2022-08-21T04:05:14;0.30;;;0.20;;
32641;SDS011;19323;56.072;9.698;2022-08-21T04:07:54;2.45;;;0.52;;
32641;SDS011;19323;56.072;9.698;2022-08-21T04:10:21;1.80;;;0.50;;
32641;SDS011;19323;56.072;9.698;2022-08-21T04:12:48;1.95;;;0.22;;
32641;SDS011;19323;56.072;9.698;2022-08-21T04:15:15;1.00;;;0.40;;
32641;SDS011;19323;56.072;9.698;2022-08-21T04:17:42;0.85;;;0.52;;
32641;SDS011;19323;56.072;9.698;2022-08-21T04:20:08;0.68;;;0.50;;
32641;SDS011;19323;56.072;9.698;2022-08-21T04:22:35;1.48;;;0.60;;
32641;SDS011;19323;56.072;9.698;2022-08-21T04:25:01;2.42;;;0.40;;
32641;SDS011;19323;56.072;9.698;2022-08-21T04:27:28;1.08;;;0.30;;
32641;SDS011;19323;56.072;9.698;2022-08-21T04:29:55;0.85;;;0.50;;
32641;SDS011;19323;56.072;9.698;2022-08-21T04:32:24;3.70;;;0.47;;
32641;SDS011;19323;56.072;9.698;2022-08-21T04:35:02;4.63;;;1.45;;
32641;SDS011;19323;56.072;9.698;2022-08-21T04:37:30;1.70;;;0.63;;
32641;SDS011;19323;56.072;9.698;2022-08-21T04:39:57;1.00;;;0.38;;
32641;SDS011;19323;56.072;9.698;2022-08-21T04:42:24;4.43;;;1.45;;
32641;SDS011;19323;56.072;9.698;2022-08-21T04:44:51;1.60;;;0.73;;
32641;SDS011;19323;56.072;9.698;2022-08-21T04:47:18;1.13;;;0.40;;
32641;SDS011;19323;56.072;9.698;2022-08-21T04:49:44;0.73;;;0.40;;
32641;SDS011;19323;56.072;9.698;2022-08-21T04:52:11;2.25;;;0.35;;
32641;SDS011;19323;56.072;9.698;2022-08-21T04:54:42;1.15;;;0.70;;
32641;SDS011;19323;56.072;9.698;2022-08-21T04:57:11;1.20;;;0.40;;
32641;SDS011;19323;56.072;9.698;2022-08-21T04:59:40;2.55;;;0.40;;
32641;SDS011;19323;56.072;9.698;2022-08-21T05:02:12;1.63;;;0.30;;
32641;SDS011;19323;56.072;9.698;2022-08-21T05:04:48;1.27;;;0.50;;
32641;SDS011;19323;56.072;9.698;2022-08-21T05:07:20;1.15;;;0.73;;
32641;SDS011;19323;56.072;9.698;2022-08-21T05:10:08;1.95;;;0.25;;
32641;SDS011;19323;56.072;9.698;2022-08-21T05:12:39;1.75;;;0.30;;
32641;SDS011;19323;56.072;9.698;2022-08-21T05:15:08;2.83;;;0.40;;
32641;SDS011;19323;56.072;9.698;2022-08-21T05:17:38;0.60;;;0.45;;
32641;SDS011;19323;56.072;9.698;2022-08-21T05:20:06;1.30;;;0.30;;
32641;SDS011;19323;56.072;9.698;2022-08-21T05:22:33;0.38;;;0.30;;
32641;SDS011;19323;56.072;9.698;2022-08-21T05:24:59;1.05;;;0.32;;
32641;SDS011;19323;56.072;9.698;2022-08-21T05:27:26;0.40;;;0.30;;
32641;SDS011;19323;56.072;9.698;2022-08-21T05:29:56;2.40;;;0.40;;
32641;SDS011;19323;56.072;9.698;2022-08-21T05:32:23;1.02;;;0.22;;
32641;SDS011;19323;56.072;9.698;2022-08-21T05:34:50;1.55;;;0.82;;
32641;SDS011;19323;56.072;9.698;2022-08-21T05:37:16;0.60;;;0.30;;
32641;SDS011;19323;56.072;9.698;2022-08-21T05:39:43;1.27;;;0.40;;
32641;SDS011;19323;56.072;9.698;2022-08-21T05:42:29;0.40;;;0.30;;
32641;SDS011;19323;56.072;9.698;2022-08-21T05:44:56;0.88;;;0.30;;
32641;SDS011;19323;56.072;9.698;2022-08-21T05:47:24;1.42;;;0.15;;
32641;SDS011;19323;56.072;9.698;2022-08-21T05:49:50;0.20;;;0.20;;
32641;SDS011;19323;56.072;9.698;2022-08-21T05:52:20;0.63;;;0.20;;
32641;SDS011;19323;56.072;9.698;2022-08-21T05:54:47;0.52;;;0.22;;
32641;SDS011;19323;56.072;9.698;2022-08-21T05:57:14;0.70;;;0.55;;
32641;SDS011;19323;56.072;9.698;2022-08-21T05:59:40;1.15;;;0.30;;
32641;SDS011;19323;56.072;9.698;2022-08-21T06:02:07;0.30;;;0.20;;
32641;SDS011;19323;56.072;9.698;2022-08-21T06:04:37;0.95;;;0.30;;
32641;SDS011;19323;56.072;9.698;2022-08-21T06:07:05;0.75;;;0.40;;
32641;SDS011;19323;56.072;9.698;2022-08-21T06:09:32;0.75;;;0.38;;
32641;SDS011;19323;56.072;9.698;2022-08-21T06:12:03;0.80;;;0.40;;
32641;SDS011;19323;56.072;9.698;2022-08-21T06:14:37;0.85;;;0.22;;
32641;SDS011;19323;56.072;9.698;2022-08-21T06:17:05;0.60;;;0.20;;
32641;SDS011;19323;56.072;9.698;2022-08-21T06:19:38;0.33;;;0.30;;
32641;SDS011;19323;56.072;9.698;2022-08-21T06:22:05;0.95;;;0.35;;
32641;SDS011;19323;56.072;9.698;2022-08-21T06:24:31;0.38;;;0.10;;
32641;SDS011;19323;56.072;9.698;2022-08-21T06:27:03;0.93;;;0.20;;
32641;SDS011;19323;56.072;9.698;2022-08-21T06:29:33;0.43;;;0.28;;
32641;SDS011;19323;56.072;9.698;2022-08-21T06:32:10;0.40;;;0.30;;
32641;SDS011;19323;56.072;9.698;2022-08-21T06:34:38;2.17;;;0.22;;
32641;SDS011;19323;56.072;9.698;2022-08-21T06:37:06;0.22;;;0.13;;
32641;SDS011;19323;56.072;9.698;2022-08-21T06:39:33;0.75;;;0.30;;
32641;SDS011;19323;56.072;9.698;2022-08-21T06:42:00;1.00;;;0.40;;
32641;SDS011;19323;56.072;9.698;2022-08-21T06:44:29;0.45;;;0.30;;
32641;SDS011;19323;56.072;9.698;2022-08-21T06:46:56;0.98;;;0.77;;
32641;SDS011;19323;56.072;9.698;2022-08-21T06:49:23;1.08;;;0.40;;
32641;SDS011;19323;56.072;9.698;2022-08-21T06:51:50;2.45;;;0.40;;
32641;SDS011;19323;56.072;9.698;2022-08-21T06:54:17;1.40;;;0.40;;
32641;SDS011;19323;56.072;9.698;2022-08-21T06:56:44;1.05;;;0.45;;
32641;SDS011;19323;56.072;9.698;2022-08-21T06:59:10;1.52;;;0.60;;
32641;SDS011;19323;56.072;9.698;2022-08-21T07:01:40;1.35;;;0.50;;
32641;SDS011;19323;56.072;9.698;2022-08-21T07:04:07;3.70;;;0.88;;
32641;SDS011;19323;56.072;9.698;2022-08-21T07:06:33;2.75;;;0.77;;
32641;SDS011;19323;56.072;9.698;2022-08-21T07:09:00;1.17;;;0.52;;
32641;SDS011;19323;56.072;9.698;2022-08-21T07:11:27;7.15;;;0.80;;
32641;SDS011;19323;56.072;9.698;2022-08-21T07:13:54;1.63;;;0.65;;
32641;SDS011;19323;56.072;9.698;2022-08-21T07:16:22;4.93;;;1.35;;
32641;SDS011;19323;56.072;9.698;2022-08-21T07:18:49;3.97;;;0.65;;
32641;SDS011;19323;56.072;9.698;2022-08-21T07:21:16;5.15;;;0.77;;
32641;SDS011;19323;56.072;9.698;2022-08-21T07:23:44;2.78;;;0.70;;
32641;SDS011;19323;56.072;9.698;2022-08-21T07:26:15;3.90;;;0.80;;
32641;SDS011;19323;56.072;9.698;2022-08-21T07:28:44;3.58;;;0.88;;
32641;SDS011;19323;56.072;9.698;2022-08-21T07:31:10;5.05;;;0.98;;
32641;SDS011;19323;56.072;9.698;2022-08-21T07:33:40;1.55;;;0.63;;
32641;SDS011;19323;56.072;9.698;2022-08-21T07:36:08;1.75;;;0.80;;
32641;SDS011;19323;56.072;9.698;2022-08-21T07:38:35;4.40;;;1.00;;
32641;SDS011;19323;56.072;9.698;2022-08-21T07:41:04;2.38;;;0.70;;
32641;SDS011;19323;56.072;9.698;2022-08-21T07:43:38;4.65;;;1.10;;
32641;SDS011;19323;56.072;9.698;2022-08-21T07:46:11;4.07;;;0.55;;
32641;SDS011;19323;56.072;9.698;2022-08-21T07:48:41;5.97;;;1.00;;
32641;SDS011;19323;56.072;9.698;2022-08-21T07:51:12;2.20;;;0.85;;
32641;SDS011;19323;56.072;9.698;2022-08-21T07:53:40;3.95;;;0.93;;
32641;SDS011;19323;56.072;9.698;2022-08-21T07:56:07;2.47;;;0.63;;
32641;SDS011;19323;56.072;9.698;2022-08-21T07:58:34;9.43;;;0.90;;
32641;SDS011;19323;56.072;9.698;2022-08-21T08:01:00;2.88;;;0.60;;
32641;SDS011;19323;56.072;9.698;2022-08-21T08:03:27;3.03;;;1.35;;
32641;SDS011;19323;56.072;9.698;2022-08-21T08:05:55;17.92;;;2.67;;
32641;SDS011;19323;56.072;9.698;2022-08-21T08:08:22;6.90;;;1.35;;
32641;SDS011;19323;56.072;9.698;2022-08-21T08:10:50;7.70;;;1.20;;
32641;SDS011;19323;56.072;9.698;2022-08-21T08:13:17;25.65;;;2.47;;
32641;SDS011;19323;56.072;9.698;2022-08-21T08:15:43;9.10;;;1.67;;
32641;SDS011;19323;56.072;9.698;2022-08-21T08:18:10;5.63;;;1.27;;
32641;SDS011;19323;56.072;9.698;2022-08-21T08:20:36;4.75;;;1.63;;
32641;SDS011;19323;56.072;9.698;2022-08-21T08:23:03;4.30;;;1.42;;
32641;SDS011;19323;56.072;9.698;2022-08-21T08:25:30;6.47;;;1.98;;
32641;SDS011;19323;56.072;9.698;2022-08-21T08:28:02;4.68;;;1.27;;
32641;SDS011;19323;56.072;9.698;2022-08-21T08:30:42;3.33;;;1.10;;
32641;SDS011;19323;56.072;9.698;2022-08-21T08:33:10;7.38;;;2.65;;
32641;SDS011;19323;56.072;9.698;2022-08-21T08:35:36;6.85;;;1.60;;
32641;SDS011;19323;56.072;9.698;2022-08-21T08:38:04;6.53;;;2.58;;
32641;SDS011;19323;56.072;9.698;2022-08-21T08:43:33;8.30;;;2.13;;
32641;SDS011;19323;56.072;9.698;2022-08-21T08:46:12;4.47;;;1.65;;
32641;SDS011;19323;56.072;9.698;2022-08-21T08:51:53;9.63;;;1.48;;
32641;SDS011;19323;56.072;9.698;2022-08-21T08:54:27;3.17;;;1.55;;
32641;SDS011;19323;56.072;9.698;2022-08-21T08:57:00;4.78;;;2.00;;
32641;SDS011;19323;56.072;9.698;2022-08-21T08:59:33;7.03;;;1.95;;
32641;SDS011;19323;56.072;9.698;2022-08-21T09:02:05;5.75;;;1.52;;
32641;SDS011;19323;56.072;9.698;2022-08-21T09:04:34;5.18;;;1.40;;
32641;SDS011;19323;56.072;9.698;2022-08-21T09:07:04;3.00;;;1.33;;
32641;SDS011;19323;56.072;9.698;2022-08-21T09:15:41;3.35;;;0.85;;
32641;SDS011;19323;56.072;9.698;2022-08-21T09:21:02;4.90;;;0.90;;
32641;SDS011;19323;56.072;9.698;2022-08-21T09:29:19;1.92;;;0.77;;
32641;SDS011;19323;56.072;9.698;2022-08-21T09:31:49;1.35;;;0.50;;
32641;SDS011;19323;56.072;9.698;2022-08-21T09:34:23;2.85;;;0.65;;
32641;SDS011;19323;56.072;9.698;2022-08-21T09:36:52;3.60;;;1.10;;
32641;SDS011;19323;56.072;9.698;2022-08-21T09:39:23;4.95;;;2.03;;
32641;SDS011;19323;56.072;9.698;2022-08-21T09:41:58;5.88;;;3.20;;
32641;SDS011;19323;56.072;9.698;2022-08-21T09:44:27;7.82;;;5.60;;
32641;SDS011;19323;56.072;9.698;2022-08-21T09:46:56;5.20;;;3.85;;
32641;SDS011;19323;56.072;9.698;2022-08-21T09:49:41;5.93;;;2.45;;
32641;SDS011;19323;56.072;9.698;2022-08-21T09:52:21;7.35;;;1.67;;
32641;SDS011;19323;56.072;9.698;2022-08-21T09:54:52;4.38;;;1.50;;
32641;SDS011;19323;56.072;9.698;2022-08-21T09:57:25;1.35;;;0.95;;
32641;SDS011;19323;56.072;9.698;2022-08-21T10:00:19;2.22;;;1.60;;
32641;SDS011;19323;56.072;9.698;2022-08-21T10:02:46;4.40;;;1.17;;
32641;SDS011;19323;56.072;9.698;2022-08-21T10:05:20;1.27;;;0.68;;
32641;SDS011;19323;56.072;9.698;2022-08-21T10:07:49;3.05;;;0.90;;
32641;SDS011;19323;56.072;9.698;2022-08-21T10:10:21;2.03;;;1.02;;
32641;SDS011;19323;56.072;9.698;2022-08-21T10:18:26;1.92;;;0.75;;
32641;SDS011;19323;56.072;9.698;2022-08-21T10:21:02;1.48;;;0.70;;
32641;SDS011;19323;56.072;9.698;2022-08-21T10:23:40;2.67;;;0.85;;
32641;SDS011;19323;56.072;9.698;2022-08-21T10:26:33;1.30;;;0.60;;
32641;SDS011;19323;56.072;9.698;2022-08-21T10:29:27;1.02;;;0.50;;
32641;SDS011;19323;56.072;9.698;2022-08-21T10:35:12;0.93;;;0.43;;
32641;SDS011;19323;56.072;9.698;2022-08-21T10:56:49;2.17;;;0.90;;
32641;SDS011;19323;56.072;9.698;2022-08-21T10:59:26;0.85;;;0.57;;
32641;SDS011;19323;56.072;9.698;2022-08-21T11:02:15;1.58;;;0.60;;
32641;SDS011;19323;56.072;9.698;2022-08-21T11:07:33;3.85;;;0.80;;
32641;SDS011;19323;56.072;9.698;2022-08-21T11:10:08;2.42;;;0.70;;
32641;SDS011;19323;56.072;9.698;2022-08-21T11:12:46;2.60;;;0.60;;
32641;SDS011;19323;56.072;9.698;2022-08-21T11:18:00;1.50;;;0.93;;
32641;SDS011;19323;56.072;9.698;2022-08-21T11:20:41;1.38;;;0.80;;
32641;SDS011;19323;56.072;9.698;2022-08-21T11:23:21;2.00;;;0.55;;
32641;SDS011;19323;56.072;9.698;2022-08-21T11:25:53;1.08;;;0.60;;
32641;SDS011;19323;56.072;9.698;2022-08-21T11:28:37;4.40;;;1.48;;
32641;SDS011;19323;56.072;9.698;2022-08-21T11:34:05;3.35;;;1.15;;
32641;SDS011;19323;56.072;9.698;2022-08-21T11:37:02;5.95;;;1.25;;
32641;SDS011;19323;56.072;9.698;2022-08-21T11:51:06;4.18;;;1.13;;
32641;SDS011;19323;56.072;9.698;2022-08-21T11:54:03;2.10;;;0.90;;
32641;SDS011;19323;56.072;9.698;2022-08-21T11:56:55;1.85;;;0.60;;
32641;SDS011;19323;56.072;9.698;2022-08-21T12:02:38;1.17;;;0.50;;
32641;SDS011;19323;56.072;9.698;2022-08-21T12:05:09;2.83;;;0.70;;
32641;SDS011;19323;56.072;9.698;2022-08-21T12:07:58;3.22;;;1.77;;
32641;SDS011;19323;56.072;9.698;2022-08-21T12:10:32;1.67;;;0.55;;
32641;SDS011;19323;56.072;9.698;2022-08-21T12:13:08;3.25;;;0.70;;
32641;SDS011;19323;56.072;9.698;2022-08-21T12:16:15;3.05;;;1.00;;
32641;SDS011;19323;56.072;9.698;2022-08-21T12:19:05;1.38;;;0.50;;
32641;SDS011;19323;56.072;9.698;2022-08-21T12:21:33;1.60;;;0.80;;
32641;SDS011;19323;56.072;9.698;2022-08-21T12:35:02;4.85;;;0.73;;
32641;SDS011;19323;56.072;9.698;2022-08-21T12:37:58;5.50;;;0.75;;
32641;SDS011;19323;56.072;9.698;2022-08-21T12:40:39;4.10;;;1.02;;
32641;SDS011;19323;56.072;9.698;2022-08-21T12:43:16;0.93;;;0.60;;
32641;SDS011;19323;56.072;9.698;2022-08-21T12:45:48;1.35;;;0.50;;
32641;SDS011;19323;56.072;9.698;2022-08-21T12:48:21;3.42;;;0.50;;
32641;SDS011;19323;56.072;9.698;2022-08-21T12:50:57;3.63;;;0.80;;
32641;SDS011;19323;56.072;9.698;2022-08-21T12:53:47;4.60;;;1.40;;
32641;SDS011;19323;56.072;9.698;2022-08-21T12:56:25;3.15;;;1.10;;
32641;SDS011;19323;56.072;9.698;2022-08-21T12:58:56;3.33;;;0.93;;
32641;SDS011;19323;56.072;9.698;2022-08-21T13:04:08;1.75;;;0.98;;
32641;SDS011;19323;56.072;9.698;2022-08-21T13:06:40;2.78;;;0.80;;
32641;SDS011;19323;56.072;9.698;2022-08-21T13:09:10;1.90;;;0.50;;
32641;SDS011;19323;56.072;9.698;2022-08-21T13:11:40;1.02;;;0.75;;
32641;SDS011;19323;56.072;9.698;2022-08-21T13:17:11;1.27;;;0.50;;
32641;SDS011;19323;56.072;9.698;2022-08-21T13:20:04;0.98;;;0.50;;
32641;SDS011;19323;56.072;9.698;2022-08-21T13:22:43;1.75;;;0.90;;
32641;SDS011;19323;56.072;9.698;2022-08-21T13:25:11;3.88;;;0.80;;
32641;SDS011;19323;56.072;9.698;2022-08-21T13:27:39;1.50;;;0.88;;
32641;SDS011;19323;56.072;9.698;2022-08-21T13:30:14;1.40;;;0.47;;
32641;SDS011;19323;56.072;9.698;2022-08-21T13:32:46;0.60;;;0.40;;
32641;SDS011;19323;56.072;9.698;2022-08-21T13:35:22;2.30;;;1.00;;
32641;SDS011;19323;56.072;9.698;2022-08-21T13:37:51;3.28;;;0.95;;
32641;SDS011;19323;56.072;9.698;2022-08-21T13:40:26;8.27;;;1.23;;
32641;SDS011;19323;56.072;9.698;2022-08-21T13:42:57;5.28;;;0.90;;
32641;SDS011;19323;56.072;9.698;2022-08-21T13:45:29;5.15;;;1.80;;
32641;SDS011;19323;56.072;9.698;2022-08-21T13:47:59;1.00;;;0.73;;
32641;SDS011;19323;56.072;9.698;2022-08-21T13:50:31;2.70;;;1.02;;
32641;SDS011;19323;56.072;9.698;2022-08-21T13:53:03;1.77;;;0.70;;
32641;SDS011;19323;56.072;9.698;2022-08-21T13:55:41;2.85;;;1.17;;
32641;SDS011;19323;56.072;9.698;2022-08-21T13:58:10;2.58;;;0.80;;
32641;SDS011;19323;56.072;9.698;2022-08-21T14:00:48;4.30;;;1.02;;
32641;SDS011;19323;56.072;9.698;2022-08-21T14:05:56;2.13;;;1.05;;
32641;SDS011;19323;56.072;9.698;2022-08-21T14:11:04;3.30;;;1.30;;
32641;SDS011;19323;56.072;9.698;2022-08-21T14:16:12;4.20;;;1.48;;
32641;SDS011;19323;56.072;9.698;2022-08-21T14:21:23;3.45;;;1.25;;
32641;SDS011;19323;56.072;9.698;2022-08-21T14:24:04;4.90;;;1.42;;
32641;SDS011;19323;56.072;9.698;2022-08-21T14:26:35;2.50;;;1.58;;
32641;SDS011;19323;56.072;9.698;2022-08-21T14:29:06;3.92;;;1.30;;
32641;SDS011;19323;56.072;9.698;2022-08-21T14:31:35;3.85;;;1.50;;
32641;SDS011;19323;56.072;9.698;2022-08-21T14:34:10;2.58;;;1.15;;
32641;SDS011;19323;56.072;9.698;2022-08-21T14:36:44;2.80;;;1.77;;
32641;SDS011;19323;56.072;9.698;2022-08-21T14:39:11;3.80;;;1.33;;
32641;SDS011;19323;56.072;9.698;2022-08-21T14:41:38;3.00;;;1.55;;
32641;SDS011;19323;56.072;9.698;2022-08-21T14:44:04;2.58;;;1.23;;
32641;SDS011;19323;56.072;9.698;2022-08-21T14:46:35;4.03;;;1.48;;
32641;SDS011;19323;56.072;9.698;2022-08-21T14:49:21;4.20;;;1.33;;
32641;SDS011;19323;56.072;9.698;2022-08-21T14:51:49;3.38;;;1.65;;
32641;SDS011;19323;56.072;9.698;2022-08-21T14:54:19;1.95;;;1.50;;
32641;SDS011;19323;56.072;9.698;2022-08-21T14:56:56;5.10;;;2.08;;
32641;SDS011;19323;56.072;9.698;2022-08-21T14:59:24;2.88;;;1.65;;
32641;SDS011;19323;56.072;9.698;2022-08-21T15:01:51;2.28;;;1.15;;
32641;SDS011;19323;56.072;9.698;2022-08-21T15:04:18;1.95;;;1.20;;
32641;SDS011;19323;56.072;9.698;2022-08-21T15:06:44;2.33;;;1.30;;
32641;SDS011;19323;56.072;9.698;2022-08-21T15:09:11;3.65;;;1.90;;
32641;SDS011;19323;56.072;9.698;2022-08-21T15:11:37;2.72;;;1.30;;
32641;SDS011;19323;56.072;9.698;2022-08-21T15:14:18;4.68;;;1.20;;
32641;SDS011;19323;56.072;9.698;2022-08-21T15:16:47;3.72;;;1.85;;
32641;SDS011;19323;56.072;9.698;2022-08-21T15:19:14;3.55;;;1.23;;
32641;SDS011;19323;56.072;9.698;2022-08-21T15:21:41;5.45;;;1.98;;
32641;SDS011;19323;56.072;9.698;2022-08-21T15:24:07;2.17;;;0.98;;
32641;SDS011;19323;56.072;9.698;2022-08-21T15:26:35;7.97;;;3.22;;
32641;SDS011;19323;56.072;9.698;2022-08-21T15:29:02;3.83;;;1.40;;
32641;SDS011;19323;56.072;9.698;2022-08-21T15:31:32;3.40;;;1.17;;
32641;SDS011;19323;56.072;9.698;2022-08-21T15:33:59;5.25;;;1.48;;
32641;SDS011;19323;56.072;9.698;2022-08-21T15:36:25;5.38;;;1.40;;
32641;SDS011;19323;56.072;9.698;2022-08-21T15:38:52;5.05;;;1.77;;
32641;SDS011;19323;56.072;9.698;2022-08-21T15:41:18;3.40;;;1.40;;
32641;SDS011;19323;56.072;9.698;2022-08-21T15:43:46;8.60;;;1.15;;
32641;SDS011;19323;56.072;9.698;2022-08-21T15:46:16;3.70;;;1.30;;
32641;SDS011;19323;56.072;9.698;2022-08-21T15:48:45;2.30;;;0.98;;
32641;SDS011;19323;56.072;9.698;2022-08-21T15:51:12;3.97;;;1.58;;
32641;SDS011;19323;56.072;9.698;2022-08-21T15:53:41;2.95;;;1.65;;
32641;SDS011;19323;56.072;9.698;2022-08-21T15:56:11;3.05;;;1.05;;
32641;SDS011;19323;56.072;9.698;2022-08-21T15:58:47;4.05;;;1.13;;
32641;SDS011;19323;56.072;9.698;2022-08-21T16:01:15;1.52;;;0.77;;
32641;SDS011;19323;56.072;9.698;2022-08-21T16:03:42;4.45;;;1.13;;
32641;SDS011;19323;56.072;9.698;2022-08-21T16:06:14;2.40;;;1.02;;
32641;SDS011;19323;56.072;9.698;2022-08-21T16:08:41;6.05;;;1.92;;
32641;SDS011;19323;56.072;9.698;2022-08-21T16:11:07;5.95;;;1.65;;
32641;SDS011;19323;56.072;9.698;2022-08-21T16:13:44;3.80;;;1.52;;
32641;SDS011;19323;56.072;9.698;2022-08-21T16:16:18;11.18;;;1.70;;
32641;SDS011;19323;56.072;9.698;2022-08-21T16:18:47;4.10;;;1.50;;
32641;SDS011;19323;56.072;9.698;2022-08-21T16:21:18;4.65;;;1.75;;
32641;SDS011;19323;56.072;9.698;2022-08-21T16:23:45;2.40;;;1.05;;
32641;SDS011;19323;56.072;9.698;2022-08-21T16:26:11;4.22;;;1.25;;
32641;SDS011;19323;56.072;9.698;2022-08-21T16:28:43;2.35;;;1.23;;
32641;SDS011;19323;56.072;9.698;2022-08-21T16:31:13;3.28;;;1.25;;
32641;SDS011;19323;56.072;9.698;2022-08-21T16:33:45;2.10;;;1.25;;
32641;SDS011;19323;56.072;9.698;2022-08-21T16:36:18;3.85;;;1.10;;
32641;SDS011;19323;56.072;9.698;2022-08-21T16:38:45;2.53;;;1.08;;
32641;SDS011;19323;56.072;9.698;2022-08-21T16:41:15;3.97;;;1.17;;
32641;SDS011;19323;56.072;9.698;2022-08-21T16:43:44;4.78;;;1.08;;
32641;SDS011;19323;56.072;9.698;2022-08-21T16:46:12;2.70;;;1.02;;
32641;SDS011;19323;56.072;9.698;2022-08-21T16:48:41;2.60;;;1.00;;
32641;SDS011;19323;56.072;9.698;2022-08-21T16:51:11;3.80;;;1.02;;
32641;SDS011;19323;56.072;9.698;2022-08-21T16:53:39;3.25;;;1.13;;